Time;durP1;ratioP1;P1;durP2;ratioP2;P2;SDS_P1;SDS_P2;PMS_P1;PMS_P2;Temp;Humidity;BMP_temperature;BMP_pressure;BME280_temperature;BME280_humidity;BME280_pressure;Samples;Min_cycle;Max_cycle;Signal;HPM_P1;HPM_P2
2024/02/23 00:00:01;;;;;;;23.73;3.67;;;11.80;99.20;;;;;;5037432;28;20102;-49
2024/02/23 00:02:26;;;;;;;34.45;4.70;;;11.80;99.10;;;;;;5028496;28;20034;-49
2024/02/23 00:04:52;;;;;;;27.92;3.70;;;11.80;98.90;;;;;;5043775;28;20033;-49
2024/02/23 00:07:18;;;;;;;29.20;4.90;;;11.70;99.00;;;;;;5043487;28;20098;-49
2024/02/23 00:09:43;;;;;;;32.83;4.38;;;11.80;99.10;;;;;;5040738;28;20021;-49
2024/02/23 00:12:09;;;;;;;16.38;3.25;;;11.70;98.90;;;;;;5048000;28;20496;-49
2024/02/23 00:14:37;;;;;;;33.38;3.78;;;11.70;98.80;;;;;;5046942;28;20465;-49
2024/02/23 00:17:03;;;;;;;29.50;3.63;;;11.70;98.70;;;;;;5043565;28;20562;-49
2024/02/23 00:19:30;;;;;;;19.15;3.80;;;11.70;98.60;;;;;;5046371;28;20026;-49
2024/02/23 00:21:56;;;;;;;18.98;3.70;;;11.70;98.60;;;;;;5046811;28;20037;-49
2024/02/23 00:24:21;;;;;;;22.50;3.20;;;11.60;98.60;;;;;;5043360;28;20376;-49
2024/02/23 00:26:48;;;;;;;22.35;3.65;;;11.60;98.60;;;;;;5046777;28;20441;-49
2024/02/23 00:29:13;;;;;;;22.27;3.83;;;11.60;98.30;;;;;;5047931;28;20026;-49
2024/02/23 00:31:42;;;;;;;20.20;3.38;;;11.60;98.20;;;;;;5047753;28;20088;-49
2024/02/23 00:34:10;;;;;;;16.95;3.35;;;11.60;98.20;;;;;;5032306;28;20029;-49
2024/02/23 00:36:39;;;;;;;16.95;3.05;;;11.60;98.10;;;;;;5042844;28;20076;-49
2024/02/23 00:39:07;;;;;;;18.98;3.05;;;11.50;98.00;;;;;;5026711;28;20111;-49
2024/02/23 00:41:32;;;;;;;19.08;2.72;;;11.50;97.80;;;;;;5027167;28;20022;-49
2024/02/23 00:43:58;;;;;;;11.07;2.50;;;11.50;97.80;;;;;;5026291;28;20029;-49
2024/02/23 00:46:23;;;;;;;14.57;3.05;;;11.50;97.70;;;;;;5026328;28;20082;-49
2024/02/23 00:48:49;;;;;;;16.30;2.65;;;11.50;97.60;;;;;;5026337;28;20041;-49
2024/02/23 00:51:15;;;;;;;12.95;2.10;;;11.50;97.50;;;;;;5045534;28;20036;-49
2024/02/23 00:53:40;;;;;;;12.32;3.00;;;11.40;97.30;;;;;;5046166;28;20435;-49
2024/02/23 00:56:06;;;;;;;13.07;2.42;;;11.40;97.30;;;;;;5045828;28;20027;-49
2024/02/23 00:58:31;;;;;;;20.38;3.05;;;11.40;97.30;;;;;;5046057;28;20036;-49
2024/02/23 01:00:57;;;;;;;8.10;2.05;;;11.40;97.40;;;;;;5034603;28;20026;-49
2024/02/23 01:03:22;;;;;;;10.52;2.33;;;11.30;97.00;;;;;;5026060;28;20038;-49
2024/02/23 01:05:48;;;;;;;11.15;1.83;;;11.30;97.00;;;;;;5026158;28;20018;-49
2024/02/23 01:08:14;;;;;;;15.63;2.38;;;11.30;97.00;;;;;;5027088;28;20025;-49
2024/02/23 01:10:39;;;;;;;10.13;2.00;;;11.30;97.10;;;;;;5030907;28;20026;-49
2024/02/23 01:13:05;;;;;;;10.25;2.13;;;11.30;96.90;;;;;;5027266;28;20034;-49
2024/02/23 01:15:31;;;;;;;15.20;2.30;;;11.20;96.80;;;;;;5042548;28;20044;-49
2024/02/23 01:17:56;;;;;;;7.85;1.63;;;11.20;96.70;;;;;;5043137;28;20042;-49
2024/02/23 01:20:22;;;;;;;14.10;1.98;;;11.20;96.70;;;;;;5025949;28;20516;-49
2024/02/23 01:22:47;;;;;;;7.03;2.03;;;11.20;96.60;;;;;;5025746;28;20052;-49
2024/02/23 01:25:15;;;;;;;10.85;1.80;;;11.20;96.70;;;;;;5025751;28;20061;-49
2024/02/23 01:27:41;;;;;;;10.40;1.77;;;11.10;96.40;;;;;;5019118;28;20048;-49
2024/02/23 01:30:07;;;;;;;12.13;1.67;;;11.10;96.50;;;;;;5045535;28;20033;-49
2024/02/23 01:32:32;;;;;;;7.63;1.55;;;11.10;96.50;;;;;;5045466;28;20121;-49
2024/02/23 01:34:58;;;;;;;5.35;1.40;;;11.10;96.50;;;;;;5046682;28;20376;-49
2024/02/23 01:37:24;;;;;;;5.30;1.60;;;11.00;96.50;;;;;;5041820;28;20434;-49
2024/02/23 01:39:49;;;;;;;10.80;2.00;;;11.00;96.60;;;;;;5045486;28;20093;-49
2024/02/23 01:42:15;;;;;;;5.80;1.30;;;11.00;96.60;;;;;;5061778;28;20034;-49
2024/02/23 01:44:40;;;;;;;5.07;1.30;;;11.00;96.70;;;;;;5046305;28;20021;-49
2024/02/23 01:47:06;;;;;;;5.53;1.20;;;11.00;96.60;;;;;;5037854;28;20036;-49
2024/02/23 01:49:33;;;;;;;9.52;1.60;;;10.90;96.60;;;;;;5009044;28;20029;-50
2024/02/23 01:51:59;;;;;;;4.25;1.02;;;10.90;96.50;;;;;;5009373;28;20061;-49
2024/02/23 01:54:25;;;;;;;7.03;1.35;;;10.80;96.60;;;;;;5010283;28;20022;-49
2024/02/23 01:56:51;;;;;;;2.42;0.90;;;10.80;96.40;;;;;;5041627;28;20392;-50
2024/02/23 01:59:17;;;;;;;5.45;1.50;;;10.80;96.30;;;;;;5009154;28;20029;-49
2024/02/23 02:01:45;;;;;;;7.47;0.80;;;10.70;96.20;;;;;;5008819;28;20033;-49
2024/02/23 02:04:11;;;;;;;7.90;1.23;;;10.70;96.20;;;;;;5014991;28;20026;-49
2024/02/23 02:06:36;;;;;;;3.08;0.88;;;10.60;96.30;;;;;;5044966;28;20042;-49
2024/02/23 02:09:02;;;;;;;3.60;1.05;;;10.60;96.40;;;;;;5051038;28;20369;-49
2024/02/23 02:11:27;;;;;;;6.18;1.40;;;10.60;96.50;;;;;;5035223;28;20096;-49
2024/02/23 02:13:53;;;;;;;4.57;1.00;;;10.60;96.50;;;;;;5047298;28;20033;-49
2024/02/23 02:16:19;;;;;;;5.97;1.02;;;10.60;96.50;;;;;;5052773;28;20112;-49
2024/02/23 02:18:45;;;;;;;2.13;0.73;;;10.50;96.50;;;;;;5051596;28;20032;-49
2024/02/23 02:21:11;;;;;;;4.00;1.08;;;10.60;96.50;;;;;;5034212;28;20026;-49
2024/02/23 02:23:37;;;;;;;4.07;0.77;;;10.50;96.40;;;;;;5047309;28;20072;-49
2024/02/23 02:26:03;;;;;;;2.85;0.70;;;10.50;96.40;;;;;;5051452;28;20029;-50
2024/02/23 02:28:28;;;;;;;6.05;1.20;;;10.40;96.40;;;;;;5051254;28;20069;-50
2024/02/23 02:30:54;;;;;;;4.07;1.08;;;10.40;96.40;;;;;;5046622;28;20025;-49
2024/02/23 02:33:20;;;;;;;4.47;0.65;;;10.40;96.50;;;;;;5037759;28;20512;-50
2024/02/23 02:35:45;;;;;;;2.53;1.00;;;10.40;96.50;;;;;;5045989;28;20049;-49
2024/02/23 02:38:11;;;;;;;2.60;0.93;;;10.40;96.60;;;;;;5036961;28;20034;-49
2024/02/23 02:40:37;;;;;;;2.10;0.63;;;10.30;96.50;;;;;;5051194;28;20028;-49
2024/02/23 02:43:03;;;;;;;2.80;0.70;;;10.40;96.50;;;;;;5034520;28;20125;-49
2024/02/23 02:45:28;;;;;;;5.28;0.82;;;10.30;96.50;;;;;;5051027;28;20109;-50
2024/02/23 02:47:54;;;;;;;2.95;0.90;;;10.30;96.50;;;;;;5050764;28;20037;-49
2024/02/23 02:50:19;;;;;;;3.25;0.73;;;10.30;96.60;;;;;;5050573;28;20053;-49
2024/02/23 02:52:45;;;;;;;2.63;0.75;;;10.30;96.60;;;;;;5045816;28;20040;-49
2024/02/23 02:55:10;;;;;;;4.53;0.77;;;10.30;96.60;;;;;;5040963;28;20021;-49
2024/02/23 02:57:36;;;;;;;3.28;0.90;;;10.20;96.70;;;;;;5039813;28;20137;-49
2024/02/23 03:00:05;;;;;;;1.80;0.65;;;10.20;96.70;;;;;;5046558;28;20032;-49
2024/02/23 03:02:31;;;;;;;3.55;0.60;;;10.20;96.80;;;;;;5034360;28;20085;-50
2024/02/23 03:04:56;;;;;;;4.88;0.77;;;10.20;96.80;;;;;;5051187;28;20159;-49
2024/02/23 03:07:22;;;;;;;0.82;0.45;;;10.20;96.80;;;;;;5050786;28;20037;-49
2024/02/23 03:09:49;;;;;;;2.63;0.80;;;10.20;96.80;;;;;;5038101;28;20048;-50
2024/02/23 03:12:14;;;;;;;3.25;0.60;;;10.20;96.90;;;;;;5047165;28;20574;-50
2024/02/23 03:14:40;;;;;;;2.28;0.50;;;10.20;96.90;;;;;;5031048;28;20022;-49
2024/02/23 03:17:07;;;;;;;2.53;0.70;;;10.20;96.90;;;;;;5038929;28;20034;-49
2024/02/23 03:19:33;;;;;;;4.03;0.68;;;10.20;96.90;;;;;;5037356;28;20077;-50
2024/02/23 03:21:58;;;;;;;0.75;0.32;;;10.10;96.90;;;;;;5027840;28;20030;-49
2024/02/23 03:24:24;;;;;;;3.72;0.70;;;10.20;97.00;;;;;;5043988;28;20030;-49
2024/02/23 03:26:50;;;;;;;1.70;0.60;;;10.10;97.20;;;;;;5023319;28;20038;-49
2024/02/23 03:29:15;;;;;;;3.00;0.70;;;10.10;97.00;;;;;;5044162;28;20021;-49
2024/02/23 03:31:41;;;;;;;2.47;0.65;;;10.10;97.00;;;;;;5041522;28;20541;-49
2024/02/23 03:34:07;;;;;;;2.45;0.80;;;10.10;97.00;;;;;;5048706;28;20083;-50
2024/02/23 03:36:33;;;;;;;3.67;0.65;;;10.10;97.00;;;;;;5048428;28;20026;-49
2024/02/23 03:38:59;;;;;;;1.15;0.50;;;10.10;97.00;;;;;;5047214;28;20097;-49
2024/02/23 03:41:24;;;;;;;3.60;0.60;;;10.10;97.00;;;;;;5036496;28;20029;-49
2024/02/23 03:43:50;;;;;;;3.22;0.90;;;10.10;97.00;;;;;;5028559;28;20025;-49
2024/02/23 03:46:16;;;;;;;1.65;0.60;;;10.10;97.00;;;;;;5044979;28;20061;-49
2024/02/23 03:48:42;;;;;;;2.15;0.77;;;10.00;97.10;;;;;;5028284;28;20030;-50
2024/02/23 03:51:09;;;;;;;2.33;0.57;;;10.00;97.10;;;;;;5036727;28;20048;-50
2024/02/23 03:53:34;;;;;;;2.55;0.60;;;10.00;97.10;;;;;;5035145;28;20026;-50
2024/02/23 03:56:00;;;;;;;1.90;0.60;;;10.00;97.20;;;;;;5025894;28;20093;-49
2024/02/23 03:58:25;;;;;;;1.42;0.60;;;10.00;97.20;;;;;;5045811;28;20030;-49
2024/02/23 04:00:51;;;;;;;1.25;0.55;;;10.00;97.20;;;;;;5010783;28;20025;-49
2024/02/23 04:03:17;;;;;;;3.35;1.00;;;10.00;97.30;;;;;;5037588;28;20034;-49
2024/02/23 04:05:42;;;;;;;0.68;0.40;;;9.90;97.20;;;;;;5033744;28;20028;-49
2024/02/23 04:08:08;;;;;;;2.42;0.68;;;9.90;97.20;;;;;;5043199;28;20092;-49
2024/02/23 04:10:33;;;;;;;1.85;0.70;;;9.90;97.20;;;;;;5028057;28;20041;-49
2024/02/23 04:13:00;;;;;;;1.27;0.50;;;9.90;97.30;;;;;;5033704;28;20044;-50
2024/02/23 04:15:25;;;;;;;3.67;0.68;;;9.90;97.30;;;;;;5035883;28;20040;-49
2024/02/23 04:17:51;;;;;;;1.52;0.57;;;9.90;97.30;;;;;;5026484;28;20109;-50
2024/02/23 04:20:16;;;;;;;1.70;0.40;;;9.90;97.30;;;;;;5043000;28;20033;-49
2024/02/23 04:22:42;;;;;;;2.17;0.63;;;9.90;97.40;;;;;;5032617;28;20037;-49
2024/02/23 04:25:08;;;;;;;2.42;0.60;;;9.90;97.40;;;;;;5039595;28;20017;-49
2024/02/23 04:27:33;;;;;;;1.77;0.60;;;9.90;97.50;;;;;;5047839;28;20033;-49
2024/02/23 04:29:59;;;;;;;1.35;0.43;;;9.80;97.40;;;;;;5047620;28;20093;-50
2024/02/23 04:32:24;;;;;;;1.52;0.57;;;9.90;97.40;;;;;;5029516;28;20060;-49
2024/02/23 04:34:50;;;;;;;2.22;0.40;;;9.90;97.40;;;;;;5040300;28;20554;-50
2024/02/23 04:37:16;;;;;;;2.10;0.50;;;9.90;97.40;;;;;;5018861;28;20037;-49
2024/02/23 04:39:43;;;;;;;2.30;0.52;;;9.90;97.40;;;;;;5033053;28;20415;-49
2024/02/23 04:42:09;;;;;;;2.28;0.57;;;9.80;97.40;;;;;;5026038;28;20030;-49
2024/02/23 04:44:35;;;;;;;1.58;0.40;;;9.80;97.40;;;;;;5029815;28;20036;-49
2024/02/23 04:47:01;;;;;;;3.33;0.73;;;9.80;97.30;;;;;;5039978;28;20034;-50
2024/02/23 04:49:26;;;;;;;0.28;0.22;;;9.80;97.40;;;;;;5038112;28;20033;-49
2024/02/23 04:51:53;;;;;;;1.38;0.50;;;9.80;97.40;;;;;;5032654;28;20037;-50
2024/02/23 04:54:18;;;;;;;1.95;0.57;;;9.80;97.40;;;;;;5011049;28;20033;-49
2024/02/23 04:56:44;;;;;;;0.43;0.20;;;9.80;97.40;;;;;;5041911;28;20038;-50
2024/02/23 04:59:10;;;;;;;0.22;0.20;;;9.80;97.40;;;;;;5035727;28;20017;-49
2024/02/23 05:01:37;;;;;;;4.10;0.70;;;9.80;97.40;;;;;;5033564;28;20377;-50
2024/02/23 05:04:03;;;;;;;1.42;0.40;;;9.80;97.40;;;;;;5041748;28;20032;-49
2024/02/23 05:06:29;;;;;;;0.90;0.45;;;9.80;97.40;;;;;;5030435;28;20085;-49
2024/02/23 05:08:54;;;;;;;1.40;0.50;;;9.70;97.40;;;;;;5039138;28;20053;-49
2024/02/23 05:11:20;;;;;;;3.05;0.85;;;9.70;97.40;;;;;;5009805;28;20461;-49
2024/02/23 05:13:45;;;;;;;1.48;0.50;;;9.70;97.40;;;;;;5022637;28;20124;-49
2024/02/23 05:16:13;;;;;;;2.88;0.60;;;9.70;97.40;;;;;;5028919;28;20362;-50
2024/02/23 05:18:39;;;;;;;1.08;0.50;;;9.70;97.40;;;;;;5045518;28;20037;-49
2024/02/23 05:21:05;;;;;;;1.75;0.50;;;9.70;97.40;;;;;;5045424;28;20014;-49
2024/02/23 05:23:30;;;;;;;1.80;0.50;;;9.70;97.50;;;;;;5034059;28;20033;-49
2024/02/23 05:25:56;;;;;;;1.80;0.57;;;9.70;97.50;;;;;;5033477;28;20387;-49
2024/02/23 05:28:21;;;;;;;3.95;0.55;;;9.70;97.50;;;;;;5045183;28;20034;-50
2024/02/23 05:30:47;;;;;;;3.17;0.70;;;9.70;97.40;;;;;;5045259;28;20029;-49
2024/02/23 05:33:12;;;;;;;0.90;0.32;;;9.70;97.40;;;;;;5045236;28;20032;-49
2024/02/23 05:35:38;;;;;;;2.78;0.52;;;9.70;97.40;;;;;;5032856;28;20045;-50
2024/02/23 05:38:06;;;;;;;2.85;0.60;;;9.70;97.40;;;;;;5040918;28;20035;-49
2024/02/23 05:40:32;;;;;;;3.75;0.70;;;9.70;97.40;;;;;;5028766;28;20048;-49
2024/02/23 05:42:58;;;;;;;0.98;0.47;;;9.70;97.30;;;;;;5038573;28;20489;-49
2024/02/23 05:45:23;;;;;;;3.75;0.60;;;9.70;97.30;;;;;;5035639;28;20021;-49
2024/02/23 05:47:49;;;;;;;5.03;1.10;;;9.70;97.30;;;;;;5046216;28;20468;-49
2024/02/23 05:50:15;;;;;;;5.97;0.85;;;9.70;97.30;;;;;;5029661;28;20057;-49
2024/02/23 05:52:40;;;;;;;9.18;1.73;;;9.70;97.30;;;;;;5023812;28;20076;-49
2024/02/23 05:55:07;;;;;;;4.70;1.48;;;9.70;97.20;;;;;;5026414;28;20022;-49
2024/02/23 05:57:33;;;;;;;8.90;1.63;;;9.70;97.10;;;;;;5037638;28;20036;-49
2024/02/23 05:59:59;;;;;;;8.77;1.23;;;9.70;97.10;;;;;;5045712;28;20029;-49
2024/02/23 06:02:24;;;;;;;11.63;1.38;;;9.70;97.10;;;;;;5029439;28;20030;-49
2024/02/23 06:04:50;;;;;;;9.85;1.52;;;9.60;97.30;;;;;;5044656;28;20075;-49
2024/02/23 06:07:15;;;;;;;13.30;1.98;;;9.60;97.10;;;;;;5035122;28;20033;-50
2024/02/23 06:09:41;;;;;;;15.60;1.83;;;9.70;97.10;;;;;;5037494;28;20059;-50
2024/02/23 06:12:08;;;;;;;20.20;1.90;;;9.60;97.10;;;;;;5028204;28;20117;-49
2024/02/23 06:14:34;;;;;;;18.50;1.90;;;9.60;97.10;;;;;;5029231;28;20022;-49
2024/02/23 06:16:59;;;;;;;33.78;3.72;;;9.60;97.10;;;;;;5041421;28;20064;-49
2024/02/23 06:19:25;;;;;;;33.90;4.32;;;9.70;97.00;;;;;;5037382;28;20018;-49
2024/02/23 06:21:50;;;;;;;17.58;2.47;;;9.60;97.00;;;;;;5029827;28;20037;-50
2024/02/23 06:24:16;;;;;;;30.33;3.63;;;9.70;96.90;;;;;;5024940;28;20032;-49
2024/02/23 06:26:42;;;;;;;26.02;3.40;;;9.60;96.90;;;;;;5019443;28;20037;-50
2024/02/23 06:29:12;;;;;;;23.38;2.97;;;9.60;96.90;;;;;;5041574;28;20026;-49
2024/02/23 06:31:38;;;;;;;28.15;3.97;;;9.60;96.90;;;;;;5024773;28;20481;-49
2024/02/23 06:34:04;;;;;;;17.77;3.55;;;9.60;96.90;;;;;;5037281;28;20034;-49
2024/02/23 06:36:30;;;;;;;19.23;3.50;;;9.60;96.90;;;;;;5027504;28;20536;-50
2024/02/23 06:38:55;;;;;;;33.83;4.93;;;9.60;97.00;;;;;;5045994;28;20064;-49
2024/02/23 06:41:21;;;;;;;70.25;9.40;;;9.60;97.30;;;;;;5017921;28;20029;-49
2024/02/23 06:43:46;;;;;;;85.75;9.95;;;9.60;97.40;;;;;;5039120;28;20045;-49
2024/02/23 06:46:12;;;;;;;64.70;7.28;;;9.60;97.50;;;;;;5043749;28;20029;-50
2024/02/23 06:48:38;;;;;;;61.50;6.60;;;9.60;97.20;;;;;;5028660;28;20480;-49
2024/02/23 06:51:04;;;;;;;48.88;7.10;;;9.60;97.00;;;;;;5027814;28;20126;-49
2024/02/23 06:53:30;;;;;;;64.60;7.35;;;9.50;97.00;;;;;;5016826;28;20078;-49
2024/02/23 06:55:56;;;;;;;32.70;4.93;;;9.50;97.00;;;;;;5029388;28;20044;-49
2024/02/23 06:58:21;;;;;;;44.42;5.47;;;9.50;96.80;;;;;;5042843;28;20034;-49
2024/02/23 07:00:47;;;;;;;43.08;6.28;;;9.50;96.90;;;;;;5026594;28;20164;-49
2024/02/23 07:03:14;;;;;;;57.05;6.22;;;9.50;96.60;;;;;;5026548;28;20041;-49
2024/02/23 07:05:42;;;;;;;44.05;6.43;;;9.50;96.60;;;;;;5040319;28;20014;-49
2024/02/23 07:08:07;;;;;;;55.83;6.35;;;9.50;96.50;;;;;;5047515;28;20064;-49
2024/02/23 07:10:33;;;;;;;38.28;5.10;;;9.40;96.70;;;;;;5044253;28;20018;-49
2024/02/23 07:12:58;;;;;;;38.85;5.57;;;9.50;96.30;;;;;;5027977;28;20061;-49
2024/02/23 07:15:27;;;;;;;26.75;5.47;;;9.40;96.20;;;;;;5021630;28;20036;-50
2024/02/23 07:17:52;;;;;;;46.22;5.68;;;9.40;96.20;;;;;;5045557;28;20038;-49
2024/02/23 07:20:18;;;;;;;42.47;6.55;;;9.40;96.10;;;;;;5030468;28;20022;-49
2024/02/23 07:22:45;;;;;;;38.70;6.07;;;9.40;96.20;;;;;;5012787;28;20033;-49
2024/02/23 07:25:11;;;;;;;34.92;5.45;;;9.40;96.20;;;;;;5041887;28;20034;-49
2024/02/23 07:27:36;;;;;;;37.55;6.65;;;9.40;96.20;;;;;;5036137;28;20485;-50
2024/02/23 07:30:04;;;;;;;33.42;5.40;;;9.40;96.10;;;;;;5044625;28;20033;-49
2024/02/23 07:32:30;;;;;;;37.72;5.82;;;9.40;96.00;;;;;;5026350;28;20071;-49
2024/02/23 07:34:55;;;;;;;35.00;5.78;;;9.40;96.00;;;;;;5035425;28;20029;-50
2024/02/23 07:37:21;;;;;;;31.85;5.85;;;9.40;95.90;;;;;;5038599;28;20033;-50
2024/02/23 07:39:46;;;;;;;46.45;5.45;;;9.40;95.90;;;;;;5055471;28;20026;-49
2024/02/23 07:42:14;;;;;;;26.33;5.25;;;9.40;95.80;;;;;;5052634;28;20080;-49
2024/02/23 07:44:40;;;;;;;28.83;4.15;;;9.40;95.90;;;;;;5047951;28;20025;-50
2024/02/23 07:47:05;;;;;;;26.65;5.03;;;9.40;95.80;;;;;;5042329;28;20038;-49
2024/02/23 07:49:31;;;;;;;36.97;4.97;;;9.40;95.70;;;;;;5038498;28;20041;-49
2024/02/23 07:51:57;;;;;;;38.85;5.18;;;9.40;95.60;;;;;;5036912;28;20504;-49
2024/02/23 07:54:22;;;;;;;28.67;5.63;;;9.40;95.50;;;;;;5046233;28;20052;-49
2024/02/23 07:56:48;;;;;;;38.72;5.82;;;9.30;95.40;;;;;;5041972;28;20040;-49
2024/02/23 07:59:13;;;;;;;34.15;5.78;;;9.30;95.40;;;;;;5036068;28;20021;-50
2024/02/23 08:01:40;;;;;;;24.52;5.50;;;9.40;95.40;;;;;;5046063;28;20045;-49
2024/02/23 08:04:05;;;;;;;29.05;5.80;;;9.30;95.20;;;;;;5041230;28;20464;-49
2024/02/23 08:06:31;;;;;;;39.40;5.40;;;9.40;95.30;;;;;;5041198;28;20025;-49
2024/02/23 08:08:56;;;;;;;29.98;5.15;;;9.30;95.20;;;;;;5044301;28;20454;-49
2024/02/23 08:11:22;;;;;;;21.55;5.65;;;9.30;95.30;;;;;;5041053;28;20048;-49
2024/02/23 08:13:47;;;;;;;33.50;4.93;;;9.30;95.30;;;;;;5043494;28;20044;-58
2024/02/23 08:16:15;;;;;;;41.00;5.90;;;9.30;95.20;;;;;;5046313;28;20065;-58
2024/02/23 08:18:40;;;;;;;47.55;6.95;;;9.40;95.20;;;;;;5028014;28;20491;-59
2024/02/23 08:21:07;;;;;;;53.20;7.10;;;9.40;95.20;;;;;;5044231;28;20033;-58
2024/02/23 08:23:32;;;;;;;50.13;7.18;;;9.40;95.20;;;;;;5047158;28;20036;-58
2024/02/23 08:26:00;;;;;;;46.00;7.05;;;9.40;95.20;;;;;;5062992;28;20025;-59
2024/02/23 08:28:25;;;;;;;55.40;7.93;;;9.40;95.10;;;;;;5046246;28;20029;-58
2024/02/23 08:30:51;;;;;;;45.53;7.13;;;9.40;95.10;;;;;;5041313;28;20026;-50
2024/02/23 08:33:16;;;;;;;68.25;7.40;;;9.40;95.00;;;;;;5053063;28;20088;-58
2024/02/23 08:35:42;;;;;;;89.13;9.60;;;9.40;95.00;;;;;;5049987;28;20083;-59
2024/02/23 08:38:08;;;;;;;78.95;11.77;;;9.50;95.00;;;;;;5040241;28;20033;-59
2024/02/23 08:40:34;;;;;;;75.82;9.15;;;9.40;95.00;;;;;;5043426;28;20104;-58
2024/02/23 08:43:00;;;;;;;52.35;8.18;;;9.50;95.10;;;;;;5027263;28;20056;-59
2024/02/23 08:45:25;;;;;;;91.43;11.10;;;9.50;95.00;;;;;;5038307;28;20120;-59
2024/02/23 08:47:51;;;;;;;94.45;11.45;;;9.50;94.90;;;;;;5044232;28;20049;-58
2024/02/23 08:50:17;;;;;;;76.63;10.60;;;9.50;94.90;;;;;;5040238;28;20112;-58
2024/02/23 08:52:42;;;;;;;61.53;9.30;;;9.40;94.80;;;;;;5030990;28;20052;-58
2024/02/23 08:55:08;;;;;;;88.03;9.13;;;9.60;94.70;;;;;;5042799;28;20036;-58
2024/02/23 08:57:33;;;;;;;250.15;28.55;;;9.50;94.60;;;;;;5042174;28;20033;-58
2024/02/23 08:59:59;;;;;;;220.77;24.02;;;9.50;94.60;;;;;;5041667;28;20022;-59
2024/02/23 09:02:25;;;;;;;122.80;13.88;;;9.50;94.60;;;;;;5045495;28;20171;-58
2024/02/23 09:04:51;;;;;;;109.68;12.77;;;9.50;94.60;;;;;;5044057;28;20032;-59
2024/02/23 09:07:19;;;;;;;126.55;12.90;;;9.60;94.60;;;;;;5040451;28;20037;-58
2024/02/23 09:09:45;;;;;;;109.95;13.00;;;9.60;94.50;;;;;;5040062;28;20037;-59
2024/02/23 09:12:11;;;;;;;134.65;12.95;;;9.60;94.40;;;;;;5026458;28;20049;-58
2024/02/23 09:14:38;;;;;;;123.55;13.65;;;9.60;94.40;;;;;;5043640;28;20097;-58
2024/02/23 09:17:04;;;;;;;149.15;15.68;;;9.60;94.70;;;;;;5041254;28;20026;-58
2024/02/23 09:19:30;;;;;;;134.15;15.50;;;9.60;94.50;;;;;;5041921;28;20018;-59
2024/02/23 09:21:55;;;;;;;125.65;14.38;;;9.60;94.60;;;;;;5041121;28;20038;-58
2024/02/23 09:24:21;;;;;;;125.35;14.38;;;9.60;94.60;;;;;;5037726;28;20049;-59
2024/02/23 09:26:47;;;;;;;130.88;12.43;;;9.60;94.50;;;;;;5038733;28;20037;-58
2024/02/23 09:29:13;;;;;;;119.82;11.63;;;9.70;94.50;;;;;;5026104;28;20052;-59
2024/02/23 09:31:39;;;;;;;125.20;13.25;;;9.60;94.40;;;;;;5045419;28;20030;-58
2024/02/23 09:34:04;;;;;;;131.55;13.18;;;9.70;94.40;;;;;;5040382;28;20036;-58
2024/02/23 09:36:30;;;;;;;137.27;13.98;;;9.70;94.30;;;;;;5029526;28;20032;-59
2024/02/23 09:38:55;;;;;;;133.63;14.93;;;9.70;94.10;;;;;;5027513;28;20044;-58
2024/02/23 09:41:22;;;;;;;133.73;14.18;;;9.70;94.10;;;;;;5044706;28;20029;-58
2024/02/23 09:43:48;;;;;;;118.15;13.43;;;9.70;94.00;;;;;;5044311;28;20022;-59
2024/02/23 09:46:15;;;;;;;89.65;12.18;;;9.70;93.90;;;;;;5041069;28;20081;-58
2024/02/23 09:48:44;;;;;;;112.07;12.65;;;9.70;93.90;;;;;;5038725;28;20088;-58
2024/02/23 09:51:13;;;;;;;115.60;12.75;;;9.70;93.80;;;;;;5028257;28;20461;-58
2024/02/23 09:53:38;;;;;;;98.85;11.77;;;9.70;93.70;;;;;;5026289;28;20037;-58
2024/02/23 09:56:05;;;;;;;104.35;11.68;;;9.70;93.60;;;;;;5025743;28;20052;-58
2024/02/23 09:58:34;;;;;;;210.10;18.55;;;9.70;93.50;;;;;;5026353;28;20025;-59
2024/02/23 10:01:00;;;;;;;166.57;16.58;;;9.70;93.50;;;;;;5041981;28;20029;-59
2024/02/23 10:03:28;;;;;;;124.50;13.23;;;9.80;93.10;;;;;;5035676;28;20114;-59
2024/02/23 10:05:54;;;;;;;124.32;12.23;;;9.70;93.00;;;;;;5006325;28;20025;-58
2024/02/23 10:08:19;;;;;;;115.68;13.50;;;9.80;92.80;;;;;;5006749;28;20038;-58
2024/02/23 10:10:46;;;;;;;122.90;12.20;;;9.80;92.50;;;;;;5009596;28;20033;-59
2024/02/23 10:13:11;;;;;;;184.25;17.60;;;9.80;92.30;;;;;;5040811;28;20101;-59
2024/02/23 10:15:37;;;;;;;165.05;15.98;;;9.80;92.40;;;;;;5041357;28;20033;-59
2024/02/23 10:18:04;;;;;;;151.32;14.43;;;9.80;92.60;;;;;;5043280;28;20037;-59
2024/02/23 10:20:29;;;;;;;139.45;14.00;;;9.90;92.70;;;;;;5042266;28;20036;-58
2024/02/23 10:22:55;;;;;;;180.75;18.15;;;9.90;92.80;;;;;;5042317;28;20026;-59
2024/02/23 10:25:21;;;;;;;128.27;14.32;;;9.90;92.70;;;;;;5026019;28;20135;-58
2024/02/23 10:27:46;;;;;;;97.40;10.80;;;9.90;92.60;;;;;;5038916;28;20025;-58
2024/02/23 10:30:14;;;;;;;104.32;11.85;;;9.90;92.50;;;;;;5045599;28;20057;-58
2024/02/23 10:32:40;;;;;;;97.57;10.85;;;10.00;92.50;;;;;;5029560;28;20295;-58
2024/02/23 10:35:11;;;;;;;110.70;11.80;;;9.90;92.40;;;;;;5031706;28;20033;-58
2024/02/23 10:37:37;;;;;;;99.45;11.60;;;10.00;92.50;;;;;;5031949;28;20061;-59
2024/02/23 10:40:04;;;;;;;81.47;10.30;;;10.00;92.40;;;;;;5049680;28;20053;-58
2024/02/23 10:42:33;;;;;;;88.60;11.45;;;10.00;92.40;;;;;;5027885;28;20124;-58
2024/02/23 10:45:01;;;;;;;144.23;14.07;;;10.00;92.30;;;;;;5030498;28;20053;-59
2024/02/23 10:47:26;;;;;;;113.30;12.75;;;10.00;92.20;;;;;;5047952;28;20057;-59
2024/02/23 10:49:52;;;;;;;111.30;13.77;;;10.10;92.10;;;;;;5047335;28;20040;-59
2024/02/23 10:52:18;;;;;;;118.82;13.32;;;10.10;92.10;;;;;;5031807;28;20041;-58
2024/02/23 10:54:45;;;;;;;107.25;13.13;;;10.10;92.10;;;;;;5030230;28;20112;-59
2024/02/23 10:57:11;;;;;;;108.18;13.02;;;10.10;92.10;;;;;;5031793;28;20041;-58
2024/02/23 10:59:37;;;;;;;104.45;11.85;;;10.10;92.10;;;;;;5047899;28;20109;-58
2024/02/23 11:02:02;;;;;;;278.60;30.15;;;10.10;92.10;;;;;;5031181;28;20029;-58
2024/02/23 11:04:28;;;;;;;155.77;15.93;;;10.10;92.00;;;;;;5031063;28;20022;-58
2024/02/23 11:07:04;;;;;;;180.65;15.70;;;10.10;91.90;;;;;;5030792;28;20472;-58
2024/02/23 11:09:30;;;;;;;125.50;13.70;;;10.10;91.90;;;;;;5046545;28;20031;-59
2024/02/23 11:11:56;;;;;;;124.90;13.90;;;10.20;91.90;;;;;;5022573;28;20121;-59
2024/02/23 11:14:37;;;;;;;109.95;14.27;;;10.20;91.80;;;;;;5041013;28;20049;-59
2024/02/23 11:17:04;;;;;;;129.30;13.80;;;10.20;91.80;;;;;;5047203;28;20052;-59
2024/02/23 11:19:36;;;;;;;120.20;14.05;;;10.20;91.80;;;;;;5030747;28;20025;-59
2024/02/23 11:22:02;;;;;;;120.13;13.80;;;10.20;91.70;;;;;;5020745;28;20049;-59
2024/02/23 11:24:31;;;;;;;108.53;13.20;;;10.20;91.70;;;;;;5031463;28;20508;-59
2024/02/23 11:27:07;;;;;;;96.10;13.23;;;10.20;91.50;;;;;;5039116;28;20038;-59
2024/02/23 11:29:34;;;;;;;95.70;11.85;;;10.20;91.60;;;;;;5045097;28;20026;-59
2024/02/23 11:32:01;;;;;;;143.88;13.88;;;10.30;91.50;;;;;;5045355;28;20033;-59
2024/02/23 11:34:27;;;;;;;103.72;13.95;;;10.30;91.40;;;;;;5041204;28;20495;-59
2024/02/23 11:36:53;;;;;;;110.35;14.02;;;10.30;91.40;;;;;;5045202;28;20037;-59
2024/02/23 11:39:21;;;;;;;315.42;32.70;;;10.30;91.20;;;;;;5044859;28;20100;-50
2024/02/23 11:41:49;;;;;;;161.52;17.42;;;10.30;91.20;;;;;;5041309;28;20042;-50
2024/02/23 11:44:17;;;;;;;126.85;14.40;;;10.30;91.30;;;;;;5044216;28;20013;-50
2024/02/23 11:46:43;;;;;;;104.32;14.23;;;10.30;91.00;;;;;;5043139;28;20021;-50
2024/02/23 11:49:09;;;;;;;150.95;17.95;;;10.30;91.00;;;;;;5029009;28;20051;-50
2024/02/23 11:51:34;;;;;;;139.02;13.68;;;10.40;91.10;;;;;;5027886;28;20021;-50
2024/02/23 11:54:00;;;;;;;120.13;16.40;;;10.40;91.00;;;;;;5033162;28;20029;-50
2024/02/23 11:56:26;;;;;;;182.77;16.63;;;10.40;91.00;;;;;;5041870;28;22058;-50
2024/02/23 11:58:52;;;;;;;137.52;18.05;;;10.40;91.10;;;;;;5040376;28;20053;-50
2024/02/23 12:01:19;;;;;;;179.13;18.15;;;10.50;91.10;;;;;;5041167;28;20033;-50
2024/02/23 12:03:45;;;;;;;216.85;19.67;;;10.50;91.00;;;;;;5027918;28;20459;-50
2024/02/23 12:06:11;;;;;;;139.70;16.67;;;10.50;91.00;;;;;;5041629;28;20056;-50
2024/02/23 12:08:39;;;;;;;206.93;21.15;;;10.60;91.00;;;;;;5035966;28;20045;-50
2024/02/23 12:11:05;;;;;;;350.38;32.75;;;10.60;90.90;;;;;;5013349;28;20029;-50
2024/02/23 12:13:31;;;;;;;271.50;25.80;;;10.60;91.00;;;;;;5025643;28;20528;-50
2024/02/23 12:15:57;;;;;;;208.30;21.13;;;10.60;91.00;;;;;;5043563;28;20105;-50
2024/02/23 12:18:31;;;;;;;154.15;19.50;;;10.60;91.00;;;;;;5027843;28;20061;-50
2024/02/23 12:21:02;;;;;;;195.20;20.02;;;10.60;91.00;;;;;;5028808;28;20029;-50
2024/02/23 12:23:37;;;;;;;136.52;16.00;;;10.70;90.90;;;;;;5027057;28;20064;-50
2024/02/23 12:26:03;;;;;;;;;;;10.70;90.90;;;;;;5028462;28;20030;-50
2024/02/23 12:28:29;;;;;;;143.38;16.35;;;10.70;90.70;;;;;;5040678;28;19921;-50
2024/02/23 12:31:04;;;;;;;153.07;16.77;;;10.70;90.80;;;;;;5059738;28;20029;-50
2024/02/23 12:33:37;;;;;;;115.40;15.43;;;10.70;90.70;;;;;;5042191;28;20034;-50